sensor_id;sensor_type;location;lat;lon;timestamp;P1;durP1;ratioP1;P2;durP2;ratioP2
14116;SDS011;7137;51.436;6.544;2022-08-01T00:01:57;8.27;;;5.70;;
14116;SDS011;7137;51.436;6.544;2022-08-01T00:04:59;7.10;;;5.30;;
14116;SDS011;7137;51.436;6.544;2022-08-01T00:08:03;6.47;;;5.70;;
14116;SDS011;7137;51.436;6.544;2022-08-01T00:11:04;8.00;;;6.10;;
14116;SDS011;7137;51.436;6.544;2022-08-01T00:14:07;9.23;;;6.07;;
14116;SDS011;7137;51.436;6.544;2022-08-01T00:17:10;6.60;;;5.20;;
14116;SDS011;7137;51.436;6.544;2022-08-01T00:20:12;7.93;;;6.33;;
14116;SDS011;7137;51.436;6.544;2022-08-01T00:23:16;7.87;;;6.60;;
14116;SDS011;7137;51.436;6.544;2022-08-01T00:26:17;8.17;;;6.17;;
14116;SDS011;7137;51.436;6.544;2022-08-01T00:29:19;7.40;;;5.90;;
14116;SDS011;7137;51.436;6.544;2022-08-01T00:32:21;9.10;;;6.13;;
14116;SDS011;7137;51.436;6.544;2022-08-01T00:35:22;8.00;;;6.20;;
14116;SDS011;7137;51.436;6.544;2022-08-01T00:38:25;6.60;;;5.83;;
14116;SDS011;7137;51.436;6.544;2022-08-01T00:41:27;7.97;;;5.60;;
14116;SDS011;7137;51.436;6.544;2022-08-01T00:44:28;8.20;;;6.57;;
14116;SDS011;7137;51.436;6.544;2022-08-01T00:47:30;8.47;;;6.50;;
14116;SDS011;7137;51.436;6.544;2022-08-01T00:50:31;6.83;;;6.07;;
14116;SDS011;7137;51.436;6.544;2022-08-01T00:53:34;7.00;;;5.87;;
14116;SDS011;7137;51.436;6.544;2022-08-01T00:56:36;8.50;;;6.30;;
14116;SDS011;7137;51.436;6.544;2022-08-01T00:59:38;8.30;;;6.17;;
14116;SDS011;7137;51.436;6.544;2022-08-01T01:02:40;7.67;;;5.87;;
14116;SDS011;7137;51.436;6.544;2022-08-01T01:05:45;6.97;;;5.53;;
14116;SDS011;7137;51.436;6.544;2022-08-01T01:09:01;7.77;;;6.37;;
14116;SDS011;7137;51.436;6.544;2022-08-01T01:12:15;9.00;;;6.40;;
14116;SDS011;7137;51.436;6.544;2022-08-01T01:15:26;8.23;;;6.63;;
14116;SDS011;7137;51.436;6.544;2022-08-01T01:18:32;7.67;;;5.80;;
14116;SDS011;7137;51.436;6.544;2022-08-01T01:21:53;11.20;;;6.53;;
14116;SDS011;7137;51.436;6.544;2022-08-01T01:25:18;10.33;;;6.67;;
14116;SDS011;7137;51.436;6.544;2022-08-01T01:31:53;9.03;;;7.10;;
14116;SDS011;7137;51.436;6.544;2022-08-01T01:34:58;8.13;;;7.20;;
14116;SDS011;7137;51.436;6.544;2022-08-01T01:38:02;8.70;;;7.80;;
14116;SDS011;7137;51.436;6.544;2022-08-01T01:41:08;9.80;;;7.63;;
14116;SDS011;7137;51.436;6.544;2022-08-01T01:44:13;8.10;;;7.30;;
14116;SDS011;7137;51.436;6.544;2022-08-01T01:47:17;8.87;;;7.50;;
14116;SDS011;7137;51.436;6.544;2022-08-01T01:50:19;9.70;;;7.57;;
14116;SDS011;7137;51.436;6.544;2022-08-01T01:53:22;11.07;;;8.00;;
14116;SDS011;7137;51.436;6.544;2022-08-01T01:56:24;10.10;;;8.20;;
14116;SDS011;7137;51.436;6.544;2022-08-01T01:59:30;10.50;;;8.10;;
14116;SDS011;7137;51.436;6.544;2022-08-01T02:02:35;10.60;;;8.70;;
14116;SDS011;7137;51.436;6.544;2022-08-01T02:05:38;12.33;;;8.70;;
14116;SDS011;7137;51.436;6.544;2022-08-01T02:08:41;10.60;;;9.17;;
14116;SDS011;7137;51.436;6.544;2022-08-01T02:15:41;10.20;;;8.83;;
14116;SDS011;7137;51.436;6.544;2022-08-01T02:18:43;13.20;;;9.93;;
14116;SDS011;7137;51.436;6.544;2022-08-01T02:21:46;10.97;;;9.70;;
14116;SDS011;7137;51.436;6.544;2022-08-01T02:24:52;11.30;;;10.07;;
14116;SDS011;7137;51.436;6.544;2022-08-01T02:27:58;12.57;;;10.57;;
14116;SDS011;7137;51.436;6.544;2022-08-01T02:31:06;12.80;;;11.23;;
14116;SDS011;7137;51.436;6.544;2022-08-01T02:34:13;13.03;;;9.97;;
14116;SDS011;7137;51.436;6.544;2022-08-01T02:37:19;13.17;;;11.40;;
14116;SDS011;7137;51.436;6.544;2022-08-01T02:40:22;13.73;;;10.93;;
14116;SDS011;7137;51.436;6.544;2022-08-01T02:43:25;13.10;;;11.70;;
14116;SDS011;7137;51.436;6.544;2022-08-01T02:46:31;15.50;;;11.90;;
14116;SDS011;7137;51.436;6.544;2022-08-01T02:49:39;13.63;;;12.10;;
14116;SDS011;7137;51.436;6.544;2022-08-01T02:52:46;17.97;;;13.13;;
14116;SDS011;7137;51.436;6.544;2022-08-01T02:55:51;14.07;;;11.97;;
14116;SDS011;7137;51.436;6.544;2022-08-01T02:58:55;15.77;;;13.43;;
14116;SDS011;7137;51.436;6.544;2022-08-01T03:01:58;14.33;;;12.40;;
14116;SDS011;7137;51.436;6.544;2022-08-01T03:05:03;19.83;;;15.30;;
14116;SDS011;7137;51.436;6.544;2022-08-01T03:08:06;17.93;;;13.90;;
14116;SDS011;7137;51.436;6.544;2022-08-01T03:11:09;18.87;;;14.33;;
14116;SDS011;7137;51.436;6.544;2022-08-01T03:14:13;18.60;;;13.97;;
14116;SDS011;7137;51.436;6.544;2022-08-01T03:17:17;16.90;;;13.73;;
14116;SDS011;7137;51.436;6.544;2022-08-01T03:20:21;15.57;;;13.73;;
14116;SDS011;7137;51.436;6.544;2022-08-01T03:23:26;16.13;;;13.80;;
14116;SDS011;7137;51.436;6.544;2022-08-01T03:26:31;15.47;;;13.87;;
14116;SDS011;7137;51.436;6.544;2022-08-01T03:29:36;14.83;;;13.13;;
14116;SDS011;7137;51.436;6.544;2022-08-01T03:32:41;13.33;;;11.93;;
14116;SDS011;7137;51.436;6.544;2022-08-01T03:35:45;14.03;;;12.53;;
14116;SDS011;7137;51.436;6.544;2022-08-01T03:38:48;13.60;;;12.13;;
14116;SDS011;7137;51.436;6.544;2022-08-01T03:41:54;14.30;;;12.90;;
14116;SDS011;7137;51.436;6.544;2022-08-01T03:44:59;13.13;;;11.43;;
14116;SDS011;7137;51.436;6.544;2022-08-01T03:48:10;13.93;;;12.50;;
14116;SDS011;7137;51.436;6.544;2022-08-01T03:51:15;13.80;;;12.33;;
14116;SDS011;7137;51.436;6.544;2022-08-01T03:54:20;13.47;;;12.07;;
14116;SDS011;7137;51.436;6.544;2022-08-01T03:57:24;12.23;;;10.97;;
14116;SDS011;7137;51.436;6.544;2022-08-01T04:00:29;12.17;;;10.90;;
14116;SDS011;7137;51.436;6.544;2022-08-01T04:03:33;12.70;;;11.43;;
14116;SDS011;7137;51.436;6.544;2022-08-01T04:06:36;14.33;;;12.83;;
14116;SDS011;7137;51.436;6.544;2022-08-01T04:09:39;12.23;;;10.93;;
14116;SDS011;7137;51.436;6.544;2022-08-01T04:12:40;11.90;;;10.80;;
14116;SDS011;7137;51.436;6.544;2022-08-01T04:15:42;12.70;;;11.40;;
14116;SDS011;7137;51.436;6.544;2022-08-01T04:18:45;13.57;;;12.17;;
14116;SDS011;7137;51.436;6.544;2022-08-01T04:21:47;13.90;;;12.50;;
14116;SDS011;7137;51.436;6.544;2022-08-01T04:24:51;12.93;;;11.20;;
14116;SDS011;7137;51.436;6.544;2022-08-01T04:27:56;12.87;;;11.57;;
14116;SDS011;7137;51.436;6.544;2022-08-01T04:31:00;12.90;;;11.50;;
14116;SDS011;7137;51.436;6.544;2022-08-01T04:34:04;13.97;;;12.30;;
14116;SDS011;7137;51.436;6.544;2022-08-01T04:37:07;14.13;;;12.20;;
14116;SDS011;7137;51.436;6.544;2022-08-01T04:40:11;12.97;;;11.57;;
14116;SDS011;7137;51.436;6.544;2022-08-01T04:43:14;13.10;;;11.80;;
14116;SDS011;7137;51.436;6.544;2022-08-01T04:50:13;14.73;;;12.70;;
14116;SDS011;7137;51.436;6.544;2022-08-01T04:53:15;13.10;;;11.70;;
14116;SDS011;7137;51.436;6.544;2022-08-01T04:56:18;11.27;;;10.07;;
14116;SDS011;7137;51.436;6.544;2022-08-01T04:59:20;13.40;;;12.00;;
14116;SDS011;7137;51.436;6.544;2022-08-01T05:02:40;14.47;;;12.97;;
14116;SDS011;7137;51.436;6.544;2022-08-01T05:05:43;13.40;;;12.00;;
14116;SDS011;7137;51.436;6.544;2022-08-01T05:08:45;14.27;;;11.97;;
14116;SDS011;7137;51.436;6.544;2022-08-01T05:11:46;13.63;;;11.53;;
14116;SDS011;7137;51.436;6.544;2022-08-01T05:14:48;14.07;;;12.57;;
14116;SDS011;7137;51.436;6.544;2022-08-01T05:17:49;13.77;;;11.93;;
14116;SDS011;7137;51.436;6.544;2022-08-01T05:20:52;16.57;;;12.50;;
14116;SDS011;7137;51.436;6.544;2022-08-01T05:23:53;14.43;;;12.13;;
14116;SDS011;7137;51.436;6.544;2022-08-01T05:26:55;13.20;;;11.47;;
14116;SDS011;7137;51.436;6.544;2022-08-01T05:29:57;14.33;;;12.83;;
14116;SDS011;7137;51.436;6.544;2022-08-01T05:32:58;13.70;;;11.73;;
14116;SDS011;7137;51.436;6.544;2022-08-01T05:36:01;12.03;;;10.30;;
14116;SDS011;7137;51.436;6.544;2022-08-01T05:39:02;11.77;;;10.03;;
14116;SDS011;7137;51.436;6.544;2022-08-01T05:42:04;10.43;;;9.33;;
14116;SDS011;7137;51.436;6.544;2022-08-01T05:45:06;10.67;;;8.80;;
14116;SDS011;7137;51.436;6.544;2022-08-01T05:48:08;10.70;;;8.80;;
14116;SDS011;7137;51.436;6.544;2022-08-01T05:51:11;9.07;;;7.83;;
14116;SDS011;7137;51.436;6.544;2022-08-01T05:54:12;9.50;;;7.80;;
14116;SDS011;7137;51.436;6.544;2022-08-01T05:57:14;9.00;;;7.60;;
14116;SDS011;7137;51.436;6.544;2022-08-01T06:00:16;8.60;;;6.40;;
14116;SDS011;7137;51.436;6.544;2022-08-01T06:03:17;8.27;;;6.90;;
14116;SDS011;7137;51.436;6.544;2022-08-01T06:06:21;7.20;;;5.70;;
14116;SDS011;7137;51.436;6.544;2022-08-01T06:09:22;7.00;;;5.73;;
14116;SDS011;7137;51.436;6.544;2022-08-01T06:12:24;7.20;;;5.60;;
14116;SDS011;7137;51.436;6.544;2022-08-01T06:15:26;6.40;;;4.50;;
14116;SDS011;7137;51.436;6.544;2022-08-01T06:18:27;7.13;;;5.00;;
14116;SDS011;7137;51.436;6.544;2022-08-01T06:21:30;5.87;;;3.87;;
14116;SDS011;7137;51.436;6.544;2022-08-01T06:24:32;6.27;;;4.97;;
14116;SDS011;7137;51.436;6.544;2022-08-01T06:27:33;5.20;;;3.83;;
14116;SDS011;7137;51.436;6.544;2022-08-01T06:30:35;6.47;;;4.80;;
14116;SDS011;7137;51.436;6.544;2022-08-01T06:33:37;6.00;;;3.97;;
14116;SDS011;7137;51.436;6.544;2022-08-01T06:36:39;6.90;;;3.87;;
14116;SDS011;7137;51.436;6.544;2022-08-01T06:39:41;4.93;;;3.20;;
14116;SDS011;7137;51.436;6.544;2022-08-01T06:42:43;6.10;;;4.13;;
14116;SDS011;7137;51.436;6.544;2022-08-01T06:45:45;6.63;;;4.90;;
14116;SDS011;7137;51.436;6.544;2022-08-01T06:48:47;6.73;;;5.30;;
14116;SDS011;7137;51.436;6.544;2022-08-01T06:51:50;7.17;;;5.40;;
14116;SDS011;7137;51.436;6.544;2022-08-01T06:54:51;6.30;;;5.20;;
14116;SDS011;7137;51.436;6.544;2022-08-01T06:57:53;6.80;;;5.33;;
14116;SDS011;7137;51.436;6.544;2022-08-01T07:00:54;6.60;;;4.87;;
14116;SDS011;7137;51.436;6.544;2022-08-01T07:03:56;6.70;;;5.27;;
14116;SDS011;7137;51.436;6.544;2022-08-01T07:06:59;7.20;;;5.07;;
14116;SDS011;7137;51.436;6.544;2022-08-01T07:10:01;6.90;;;4.47;;
14116;SDS011;7137;51.436;6.544;2022-08-01T07:13:03;5.20;;;3.93;;
14116;SDS011;7137;51.436;6.544;2022-08-01T07:16:04;5.90;;;4.13;;
14116;SDS011;7137;51.436;6.544;2022-08-01T07:19:06;5.97;;;4.07;;
14116;SDS011;7137;51.436;6.544;2022-08-01T07:22:09;6.37;;;4.40;;
14116;SDS011;7137;51.436;6.544;2022-08-01T07:25:10;8.00;;;5.50;;
14116;SDS011;7137;51.436;6.544;2022-08-01T07:28:12;8.90;;;7.30;;
14116;SDS011;7137;51.436;6.544;2022-08-01T07:31:14;7.90;;;6.83;;
14116;SDS011;7137;51.436;6.544;2022-08-01T07:34:16;8.77;;;7.13;;
14116;SDS011;7137;51.436;6.544;2022-08-01T07:37:19;9.50;;;7.07;;
14116;SDS011;7137;51.436;6.544;2022-08-01T07:40:20;7.60;;;6.40;;
14116;SDS011;7137;51.436;6.544;2022-08-01T07:43:22;9.70;;;7.73;;
14116;SDS011;7137;51.436;6.544;2022-08-01T07:46:23;9.37;;;7.40;;
14116;SDS011;7137;51.436;6.544;2022-08-01T07:49:25;7.07;;;5.80;;
14116;SDS011;7137;51.436;6.544;2022-08-01T07:52:29;7.50;;;5.30;;
14116;SDS011;7137;51.436;6.544;2022-08-01T07:55:31;6.00;;;4.50;;
14116;SDS011;7137;51.436;6.544;2022-08-01T07:58:33;5.43;;;3.97;;
14116;SDS011;7137;51.436;6.544;2022-08-01T08:01:35;5.17;;;3.70;;
14116;SDS011;7137;51.436;6.544;2022-08-01T08:08:34;4.40;;;2.63;;
14116;SDS011;7137;51.436;6.544;2022-08-01T08:11:35;4.13;;;2.20;;
14116;SDS011;7137;51.436;6.544;2022-08-01T08:14:40;4.03;;;2.50;;
14116;SDS011;7137;51.436;6.544;2022-08-01T08:17:42;5.27;;;2.87;;
14116;SDS011;7137;51.436;6.544;2022-08-01T08:20:44;4.50;;;2.40;;
14116;SDS011;7137;51.436;6.544;2022-08-01T08:23:47;3.97;;;2.27;;
14116;SDS011;7137;51.436;6.544;2022-08-01T08:27:06;4.40;;;2.60;;
14116;SDS011;7137;51.436;6.544;2022-08-01T08:30:09;4.57;;;2.47;;
14116;SDS011;7137;51.436;6.544;2022-08-01T08:33:11;4.77;;;2.97;;
14116;SDS011;7137;51.436;6.544;2022-08-01T08:36:13;3.60;;;2.17;;
14116;SDS011;7137;51.436;6.544;2022-08-01T08:39:16;3.43;;;2.20;;
14116;SDS011;7137;51.436;6.544;2022-08-01T08:42:18;5.37;;;2.63;;
14116;SDS011;7137;51.436;6.544;2022-08-01T08:45:21;3.80;;;2.30;;
14116;SDS011;7137;51.436;6.544;2022-08-01T08:48:23;4.30;;;2.70;;
14116;SDS011;7137;51.436;6.544;2022-08-01T08:51:26;3.40;;;1.87;;
14116;SDS011;7137;51.436;6.544;2022-08-01T08:54:30;2.67;;;1.70;;
14116;SDS011;7137;51.436;6.544;2022-08-01T08:57:33;2.97;;;1.80;;
14116;SDS011;7137;51.436;6.544;2022-08-01T09:00:36;2.80;;;1.40;;
14116;SDS011;7137;51.436;6.544;2022-08-01T09:03:38;4.03;;;2.37;;
14116;SDS011;7137;51.436;6.544;2022-08-01T09:06:40;3.07;;;2.20;;
14116;SDS011;7137;51.436;6.544;2022-08-01T09:09:43;4.77;;;2.70;;
14116;SDS011;7137;51.436;6.544;2022-08-01T09:13:07;3.70;;;2.40;;
14116;SDS011;7137;51.436;6.544;2022-08-01T09:16:15;3.53;;;2.23;;
14116;SDS011;7137;51.436;6.544;2022-08-01T09:19:19;2.93;;;2.20;;
14116;SDS011;7137;51.436;6.544;2022-08-01T09:22:21;3.43;;;2.20;;
14116;SDS011;7137;51.436;6.544;2022-08-01T09:25:26;4.40;;;3.40;;
14116;SDS011;7137;51.436;6.544;2022-08-01T09:28:33;4.10;;;2.40;;
14116;SDS011;7137;51.436;6.544;2022-08-01T09:31:39;3.87;;;2.70;;
14116;SDS011;7137;51.436;6.544;2022-08-01T09:34:43;4.10;;;2.60;;
14116;SDS011;7137;51.436;6.544;2022-08-01T09:37:46;3.90;;;2.27;;
14116;SDS011;7137;51.436;6.544;2022-08-01T09:40:50;5.00;;;2.40;;
14116;SDS011;7137;51.436;6.544;2022-08-01T09:43:53;2.13;;;1.70;;
14116;SDS011;7137;51.436;6.544;2022-08-01T09:46:55;2.40;;;1.60;;
14116;SDS011;7137;51.436;6.544;2022-08-01T09:49:57;2.30;;;1.33;;
14116;SDS011;7137;51.436;6.544;2022-08-01T09:52:59;2.50;;;1.37;;
14116;SDS011;7137;51.436;6.544;2022-08-01T09:56:09;1.83;;;1.30;;
14116;SDS011;7137;51.436;6.544;2022-08-01T09:59:21;2.00;;;1.50;;
14116;SDS011;7137;51.436;6.544;2022-08-01T10:02:37;2.73;;;1.60;;
14116;SDS011;7137;51.436;6.544;2022-08-01T10:05:41;1.83;;;1.40;;
14116;SDS011;7137;51.436;6.544;2022-08-01T10:08:45;1.93;;;1.50;;
14116;SDS011;7137;51.436;6.544;2022-08-01T10:11:49;2.80;;;1.67;;
14116;SDS011;7137;51.436;6.544;2022-08-01T10:14:50;2.07;;;1.43;;
14116;SDS011;7137;51.436;6.544;2022-08-01T10:17:55;3.53;;;1.60;;
14116;SDS011;7137;51.436;6.544;2022-08-01T10:20:58;3.97;;;1.93;;
14116;SDS011;7137;51.436;6.544;2022-08-01T10:24:01;2.50;;;1.67;;
14116;SDS011;7137;51.436;6.544;2022-08-01T10:27:06;2.53;;;1.50;;
14116;SDS011;7137;51.436;6.544;2022-08-01T10:30:10;3.03;;;2.10;;
14116;SDS011;7137;51.436;6.544;2022-08-01T10:33:12;1.53;;;0.90;;
14116;SDS011;7137;51.436;6.544;2022-08-01T10:36:14;1.37;;;0.83;;
14116;SDS011;7137;51.436;6.544;2022-08-01T10:39:19;1.57;;;1.10;;
14116;SDS011;7137;51.436;6.544;2022-08-01T10:42:23;1.60;;;0.90;;
14116;SDS011;7137;51.436;6.544;2022-08-01T10:45:25;1.90;;;1.00;;
14116;SDS011;7137;51.436;6.544;2022-08-01T10:48:29;1.50;;;1.10;;
14116;SDS011;7137;51.436;6.544;2022-08-01T10:51:35;1.30;;;1.10;;
14116;SDS011;7137;51.436;6.544;2022-08-01T10:54:39;1.40;;;0.87;;
14116;SDS011;7137;51.436;6.544;2022-08-01T10:57:43;1.67;;;0.90;;
14116;SDS011;7137;51.436;6.544;2022-08-01T11:00:46;1.83;;;1.17;;
14116;SDS011;7137;51.436;6.544;2022-08-01T11:03:58;4.03;;;1.50;;
14116;SDS011;7137;51.436;6.544;2022-08-01T11:07:05;1.27;;;1.00;;
14116;SDS011;7137;51.436;6.544;2022-08-01T11:10:09;1.90;;;1.13;;
14116;SDS011;7137;51.436;6.544;2022-08-01T11:13:19;1.20;;;0.90;;
14116;SDS011;7137;51.436;6.544;2022-08-01T11:20:33;1.30;;;0.83;;
14116;SDS011;7137;51.436;6.544;2022-08-01T11:23:39;1.80;;;0.87;;
14116;SDS011;7137;51.436;6.544;2022-08-01T11:30:23;2.57;;;0.83;;
14116;SDS011;7137;51.436;6.544;2022-08-01T11:36:50;2.17;;;1.30;;
14116;SDS011;7137;51.436;6.544;2022-08-01T11:40:24;2.83;;;1.60;;
14116;SDS011;7137;51.436;6.544;2022-08-01T11:43:27;1.80;;;1.30;;
14116;SDS011;7137;51.436;6.544;2022-08-01T11:46:49;2.17;;;1.30;;
14116;SDS011;7137;51.436;6.544;2022-08-01T11:50:00;2.67;;;1.20;;
14116;SDS011;7137;51.436;6.544;2022-08-01T11:53:02;1.70;;;1.10;;
14116;SDS011;7137;51.436;6.544;2022-08-01T11:56:05;1.87;;;1.00;;
14116;SDS011;7137;51.436;6.544;2022-08-01T11:59:06;1.50;;;1.07;;
14116;SDS011;7137;51.436;6.544;2022-08-01T12:05:27;2.23;;;1.50;;
14116;SDS011;7137;51.436;6.544;2022-08-01T12:08:30;1.63;;;1.20;;
14116;SDS011;7137;51.436;6.544;2022-08-01T12:11:34;2.83;;;1.00;;
14116;SDS011;7137;51.436;6.544;2022-08-01T12:14:36;1.83;;;1.10;;
14116;SDS011;7137;51.436;6.544;2022-08-01T12:17:39;2.30;;;1.10;;
14116;SDS011;7137;51.436;6.544;2022-08-01T12:20:43;2.70;;;1.00;;
14116;SDS011;7137;51.436;6.544;2022-08-01T12:23:46;2.17;;;1.10;;
14116;SDS011;7137;51.436;6.544;2022-08-01T12:27:01;2.17;;;1.20;;
14116;SDS011;7137;51.436;6.544;2022-08-01T12:30:04;1.70;;;1.20;;
14116;SDS011;7137;51.436;6.544;2022-08-01T12:33:09;2.00;;;1.00;;
14116;SDS011;7137;51.436;6.544;2022-08-01T12:36:12;1.20;;;0.90;;
14116;SDS011;7137;51.436;6.544;2022-08-01T12:39:13;2.43;;;1.20;;
14116;SDS011;7137;51.436;6.544;2022-08-01T12:42:15;3.83;;;1.30;;
14116;SDS011;7137;51.436;6.544;2022-08-01T12:45:17;2.20;;;1.20;;
14116;SDS011;7137;51.436;6.544;2022-08-01T12:48:21;2.50;;;1.30;;
14116;SDS011;7137;51.436;6.544;2022-08-01T12:51:23;3.53;;;1.20;;
14116;SDS011;7137;51.436;6.544;2022-08-01T12:54:25;2.10;;;1.10;;
14116;SDS011;7137;51.436;6.544;2022-08-01T12:57:30;3.33;;;1.30;;
14116;SDS011;7137;51.436;6.544;2022-08-01T13:00:32;3.43;;;1.23;;
14116;SDS011;7137;51.436;6.544;2022-08-01T13:03:36;3.07;;;1.27;;
14116;SDS011;7137;51.436;6.544;2022-08-01T13:06:38;1.67;;;1.10;;
14116;SDS011;7137;51.436;6.544;2022-08-01T13:09:48;3.57;;;1.20;;
14116;SDS011;7137;51.436;6.544;2022-08-01T13:12:51;2.87;;;1.00;;
14116;SDS011;7137;51.436;6.544;2022-08-01T13:16:02;3.03;;;1.10;;
14116;SDS011;7137;51.436;6.544;2022-08-01T13:19:06;2.00;;;1.00;;
14116;SDS011;7137;51.436;6.544;2022-08-01T13:22:08;2.57;;;1.10;;
14116;SDS011;7137;51.436;6.544;2022-08-01T13:25:10;2.77;;;1.10;;
14116;SDS011;7137;51.436;6.544;2022-08-01T13:28:16;2.40;;;1.10;;
14116;SDS011;7137;51.436;6.544;2022-08-01T13:31:21;3.30;;;1.30;;
14116;SDS011;7137;51.436;6.544;2022-08-01T13:34:35;1.60;;;1.10;;
14116;SDS011;7137;51.436;6.544;2022-08-01T13:37:37;3.93;;;1.30;;
14116;SDS011;7137;51.436;6.544;2022-08-01T13:40:39;2.57;;;1.30;;
14116;SDS011;7137;51.436;6.544;2022-08-01T13:43:41;3.43;;;1.60;;
14116;SDS011;7137;51.436;6.544;2022-08-01T13:46:42;3.67;;;1.53;;
14116;SDS011;7137;51.436;6.544;2022-08-01T13:49:46;2.83;;;1.30;;
14116;SDS011;7137;51.436;6.544;2022-08-01T13:52:47;3.63;;;1.60;;
14116;SDS011;7137;51.436;6.544;2022-08-01T13:55:49;3.17;;;1.40;;
14116;SDS011;7137;51.436;6.544;2022-08-01T13:58:51;3.47;;;1.30;;
14116;SDS011;7137;51.436;6.544;2022-08-01T14:01:52;2.73;;;1.30;;
14116;SDS011;7137;51.436;6.544;2022-08-01T14:04:55;1.40;;;1.20;;
14116;SDS011;7137;51.436;6.544;2022-08-01T14:07:58;2.80;;;1.20;;
14116;SDS011;7137;51.436;6.544;2022-08-01T14:10:59;2.27;;;1.20;;
14116;SDS011;7137;51.436;6.544;2022-08-01T14:14:01;2.97;;;1.10;;
14116;SDS011;7137;51.436;6.544;2022-08-01T14:17:03;2.80;;;1.10;;
14116;SDS011;7137;51.436;6.544;2022-08-01T14:20:06;2.00;;;1.00;;
14116;SDS011;7137;51.436;6.544;2022-08-01T14:23:08;2.47;;;1.00;;
14116;SDS011;7137;51.436;6.544;2022-08-01T14:26:10;2.20;;;0.90;;
14116;SDS011;7137;51.436;6.544;2022-08-01T14:29:13;2.17;;;1.07;;
14116;SDS011;7137;51.436;6.544;2022-08-01T14:32:14;1.77;;;0.87;;
14116;SDS011;7137;51.436;6.544;2022-08-01T14:35:17;1.77;;;0.80;;
14116;SDS011;7137;51.436;6.544;2022-08-01T14:38:18;2.03;;;0.90;;
14116;SDS011;7137;51.436;6.544;2022-08-01T14:41:20;3.10;;;0.87;;
14116;SDS011;7137;51.436;6.544;2022-08-01T14:44:22;2.90;;;1.00;;
14116;SDS011;7137;51.436;6.544;2022-08-01T14:47:24;2.57;;;1.10;;
14116;SDS011;7137;51.436;6.544;2022-08-01T14:50:27;1.90;;;0.80;;
14116;SDS011;7137;51.436;6.544;2022-08-01T14:53:28;2.83;;;1.10;;
14116;SDS011;7137;51.436;6.544;2022-08-01T14:56:30;3.00;;;1.00;;
14116;SDS011;7137;51.436;6.544;2022-08-01T14:59:32;3.00;;;1.20;;
14116;SDS011;7137;51.436;6.544;2022-08-01T15:02:33;2.27;;;1.20;;
14116;SDS011;7137;51.436;6.544;2022-08-01T15:05:37;2.33;;;1.03;;
14116;SDS011;7137;51.436;6.544;2022-08-01T15:08:39;3.87;;;2.73;;
14116;SDS011;7137;51.436;6.544;2022-08-01T15:11:40;3.03;;;1.30;;
14116;SDS011;7137;51.436;6.544;2022-08-01T15:14:42;3.10;;;1.10;;
14116;SDS011;7137;51.436;6.544;2022-08-01T15:17:50;3.00;;;1.20;;
14116;SDS011;7137;51.436;6.544;2022-08-01T15:20:53;3.07;;;1.20;;
14116;SDS011;7137;51.436;6.544;2022-08-01T15:23:55;2.07;;;1.00;;
14116;SDS011;7137;51.436;6.544;2022-08-01T15:26:57;2.33;;;1.20;;
14116;SDS011;7137;51.436;6.544;2022-08-01T15:29:58;3.00;;;1.20;;
14116;SDS011;7137;51.436;6.544;2022-08-01T15:33:00;2.20;;;1.17;;
14116;SDS011;7137;51.436;6.544;2022-08-01T15:36:03;1.97;;;1.00;;
14116;SDS011;7137;51.436;6.544;2022-08-01T15:39:05;2.90;;;1.20;;
14116;SDS011;7137;51.436;6.544;2022-08-01T15:42:07;3.90;;;1.00;;
14116;SDS011;7137;51.436;6.544;2022-08-01T15:45:10;3.03;;;1.20;;
14116;SDS011;7137;51.436;6.544;2022-08-01T15:48:16;2.37;;;1.07;;
14116;SDS011;7137;51.436;6.544;2022-08-01T15:51:19;3.67;;;1.10;;
14116;SDS011;7137;51.436;6.544;2022-08-01T15:54:21;3.20;;;1.30;;
14116;SDS011;7137;51.436;6.544;2022-08-01T15:57:23;1.57;;;1.00;;
14116;SDS011;7137;51.436;6.544;2022-08-01T16:00:24;4.43;;;1.30;;
14116;SDS011;7137;51.436;6.544;2022-08-01T16:03:26;2.03;;;1.10;;
14116;SDS011;7137;51.436;6.544;2022-08-01T16:06:29;3.40;;;1.30;;
14116;SDS011;7137;51.436;6.544;2022-08-01T16:09:30;2.43;;;1.17;;
14116;SDS011;7137;51.436;6.544;2022-08-01T16:12:32;3.60;;;1.20;;
14116;SDS011;7137;51.436;6.544;2022-08-01T16:15:34;2.07;;;1.00;;
14116;SDS011;7137;51.436;6.544;2022-08-01T16:18:36;3.73;;;1.23;;
14116;SDS011;7137;51.436;6.544;2022-08-01T16:21:39;2.87;;;1.10;;
14116;SDS011;7137;51.436;6.544;2022-08-01T16:24:41;2.87;;;1.10;;
14116;SDS011;7137;51.436;6.544;2022-08-01T16:27:42;2.47;;;1.10;;
14116;SDS011;7137;51.436;6.544;2022-08-01T16:30:45;3.57;;;1.30;;
14116;SDS011;7137;51.436;6.544;2022-08-01T16:33:47;2.97;;;1.20;;
14116;SDS011;7137;51.436;6.544;2022-08-01T16:36:51;1.83;;;1.10;;
14116;SDS011;7137;51.436;6.544;2022-08-01T16:39:54;3.40;;;1.30;;
14116;SDS011;7137;51.436;6.544;2022-08-01T16:42:56;2.80;;;1.27;;
14116;SDS011;7137;51.436;6.544;2022-08-01T16:45:57;3.80;;;1.40;;
14116;SDS011;7137;51.436;6.544;2022-08-01T16:48:59;3.50;;;1.20;;
14116;SDS011;7137;51.436;6.544;2022-08-01T16:52:02;5.03;;;2.43;;
14116;SDS011;7137;51.436;6.544;2022-08-01T16:55:04;2.77;;;1.20;;
14116;SDS011;7137;51.436;6.544;2022-08-01T16:58:07;1.77;;;1.10;;
14116;SDS011;7137;51.436;6.544;2022-08-01T17:01:08;2.37;;;1.27;;
14116;SDS011;7137;51.436;6.544;2022-08-01T17:04:10;2.93;;;1.40;;
14116;SDS011;7137;51.436;6.544;2022-08-01T17:07:13;3.17;;;1.40;;
14116;SDS011;7137;51.436;6.544;2022-08-01T17:10:14;3.10;;;1.57;;
14116;SDS011;7137;51.436;6.544;2022-08-01T17:13:16;2.47;;;1.30;;
14116;SDS011;7137;51.436;6.544;2022-08-01T17:16:19;4.33;;;1.37;;
14116;SDS011;7137;51.436;6.544;2022-08-01T17:19:21;4.23;;;1.50;;
14116;SDS011;7137;51.436;6.544;2022-08-01T17:22:23;3.20;;;1.30;;
14116;SDS011;7137;51.436;6.544;2022-08-01T17:25:25;3.87;;;1.40;;
14116;SDS011;7137;51.436;6.544;2022-08-01T17:28:27;4.03;;;1.40;;
14116;SDS011;7137;51.436;6.544;2022-08-01T17:31:28;4.07;;;1.27;;
14116;SDS011;7137;51.436;6.544;2022-08-01T17:34:30;4.30;;;1.30;;
14116;SDS011;7137;51.436;6.544;2022-08-01T17:37:34;4.67;;;1.53;;
14116;SDS011;7137;51.436;6.544;2022-08-01T17:40:36;3.57;;;1.60;;
14116;SDS011;7137;51.436;6.544;2022-08-01T17:43:37;2.53;;;1.40;;
14116;SDS011;7137;51.436;6.544;2022-08-01T17:46:39;3.30;;;1.57;;
14116;SDS011;7137;51.436;6.544;2022-08-01T17:49:40;3.33;;;1.33;;
14116;SDS011;7137;51.436;6.544;2022-08-01T17:52:43;3.87;;;1.40;;
14116;SDS011;7137;51.436;6.544;2022-08-01T17:55:45;3.57;;;1.30;;
14116;SDS011;7137;51.436;6.544;2022-08-01T17:58:47;3.77;;;1.40;;
14116;SDS011;7137;51.436;6.544;2022-08-01T18:01:48;4.87;;;1.50;;
14116;SDS011;7137;51.436;6.544;2022-08-01T18:04:50;4.03;;;1.30;;
14116;SDS011;7137;51.436;6.544;2022-08-01T18:07:53;5.50;;;1.63;;
14116;SDS011;7137;51.436;6.544;2022-08-01T18:10:55;3.83;;;1.60;;
14116;SDS011;7137;51.436;6.544;2022-08-01T18:13:58;3.90;;;1.37;;
14116;SDS011;7137;51.436;6.544;2022-08-01T18:16:59;4.10;;;1.50;;
14116;SDS011;7137;51.436;6.544;2022-08-01T18:20:01;5.23;;;1.70;;
14116;SDS011;7137;51.436;6.544;2022-08-01T18:23:04;4.40;;;1.60;;
14116;SDS011;7137;51.436;6.544;2022-08-01T18:26:08;5.17;;;1.60;;
14116;SDS011;7137;51.436;6.544;2022-08-01T18:29:10;6.53;;;1.90;;
14116;SDS011;7137;51.436;6.544;2022-08-01T18:32:11;3.37;;;1.40;;
14116;SDS011;7137;51.436;6.544;2022-08-01T18:35:13;4.87;;;1.60;;
14116;SDS011;7137;51.436;6.544;2022-08-01T18:38:16;3.57;;;1.40;;
14116;SDS011;7137;51.436;6.544;2022-08-01T18:41:17;4.87;;;1.67;;
14116;SDS011;7137;51.436;6.544;2022-08-01T18:44:19;5.27;;;1.80;;
14116;SDS011;7137;51.436;6.544;2022-08-01T18:47:23;4.57;;;1.53;;
14116;SDS011;7137;51.436;6.544;2022-08-01T18:50:27;3.60;;;1.57;;
14116;SDS011;7137;51.436;6.544;2022-08-01T18:53:32;4.77;;;1.43;;
14116;SDS011;7137;51.436;6.544;2022-08-01T18:56:35;4.60;;;1.60;;
14116;SDS011;7137;51.436;6.544;2022-08-01T18:59:38;5.20;;;1.70;;
14116;SDS011;7137;51.436;6.544;2022-08-01T19:02:40;4.70;;;1.60;;
14116;SDS011;7137;51.436;6.544;2022-08-01T19:05:42;3.87;;;1.40;;